map of TIV home
TIV - Airport
Location
City:  Tivat, Montenegro
Name:Tivat Airport
ICAO:LYTV
IATA:TIV

Details
Type:Airport (Aerodrome, Airfield)
Use:Public/Civil, International (customs port of entry)
Latitude:4224'17"N (42.404664)
Longitude:1843'24"E (18.723286)
Datum:WGS 1984
Elevation:20 ft (6 m)
Variation:4.25E (WMM2015 magnetic declination)
0.10 annual change
Runways:1
Longest:8208 × 148 ft (2502 × 45 m), paved

Time
Time Zone:UTC+1 (DST+2)
Local Time:

Weather
METAR:LYTV 160230Z VRB01KT CAVOK 10/09 Q1019
TAF:LYTV 152300Z 1600/1624 34005KT CAVOK TX27/1613Z TN10/1604Z

Related Locations
Nearby:
Farthest:CHT: 11668 mi / 18778 km
Waitangi [Tuuta], CIT, NZ

Find:

   beyond  
but within

Other Information
Maps:
NOTAMs:
Links:
Sources:

  
  • flag of Montenegro
  

Sectional Chart

Flight Planning
at skyvector.com

Satellite Image

Google Maps Satellite view

 

Copyright © 2004-2018 Karl L. Swartz. All rights reserved.
The Great Circle Mapper name and logo are trademarks of the Great Circle Mapper.
All other trademarks mentioned herein belong to their respective owners.
Please see credits for attibutions and further copyright information.

  Follow gcmap on Facebook Follow gcmap on Twitter Follow gcmap on Google+ GCmap on LinkedIn

hCard Microformat

Geo Microformat